CheckWX is a tool to help pilots better visualize weather data.  It is not intended as a substitute for an official pre-flight weather briefing.

12:24:22 UTC

LFMT TAF
Montpellier-Méditerranée Airport
Montpellier/Méditerranée, France
TAF LFMT 220800Z 2209/2309 34005KT CAVOK TEMPO 2213/2218 21010KT

Mar-22@
09:00 UTC

Mar-22 @ 09:00 UTC

Mar-23@
09:00 UTC

Mar-23 @ 09:00 UTC

TAF LFMT 220800Z 2209/2309 34005KT CAVOK
Wind
  • 340° at 5 KTS
Conditions
No significant weather
Cloud Levels
  • No significant clouds

Mar-22@
13:00 UTC

Mar-22 @ 13:00 UTC

Mar-22@
18:00 UTC

Mar-22 @ 18:00 UTC

TEMPO 2213/2218 21010KT

Temporary

Temporary Changes expected for less than half the time period

Wind
  • 210° at 10 KTS